sensor_id;sensor_type;location;lat;lon;timestamp;pressure;altitude;pressure_sealevel;temperature;humidity
46174;BME280;31897;52.420;13.498;2023-06-10T00:02:22;101200;;;16.99525;30.37522
46174;BME280;31897;52.420;13.498;2023-06-10T00:05:23;101200;;;16.98749;30.39336
46174;BME280;31897;52.420;13.498;2023-06-10T00:08:23;101200;;;16.97909;30.42945
46174;BME280;31897;52.420;13.498;2023-06-10T00:11:24;101200;;;16.91642;30.44305
46174;BME280;31897;52.420;13.498;2023-06-10T00:14:25;101200;;;16.90317;30.43144
46174;BME280;31897;52.420;13.498;2023-06-10T00:17:26;101200;;;16.88573;30.52155
46174;BME280;31897;52.420;13.498;2023-06-10T00:20:26;101200;;;16.85342;30.58215
46174;BME280;31897;52.420;13.498;2023-06-10T00:23:27;101200;;;16.84115;30.58845
46174;BME280;31897;52.420;13.498;2023-06-10T00:26:28;101200;;;16.85762;30.58802
46174;BME280;31897;52.420;13.498;2023-06-10T00:29:29;101200;;;16.80819;30.6132
46174;BME280;31897;52.420;13.498;2023-06-10T00:32:30;101200;;;16.79689;30.6613
46174;BME280;31897;52.420;13.498;2023-06-10T00:35:30;101200;;;16.79495;30.6972
46174;BME280;31897;52.420;13.498;2023-06-10T00:38:31;101200;;;16.75747;30.73998
46174;BME280;31897;52.420;13.498;2023-06-10T00:41:32;101200;;;16.70837;30.76513
46174;BME280;31897;52.420;13.498;2023-06-10T00:44:33;101200;;;16.69286;30.84916
46174;BME280;31897;52.420;13.498;2023-06-10T00:47:34;101200;;;16.68801;30.88512
46174;BME280;31897;52.420;13.498;2023-06-10T00:50:35;101200;;;16.63859;30.94609
46174;BME280;31897;52.420;13.498;2023-06-10T00:53:35;101200;;;16.63471;30.96411
46174;BME280;31897;52.420;13.498;2023-06-10T00:56:37;101200;;;16.63535;31.0059
46174;BME280;31897;52.420;13.498;2023-06-10T00:59:38;101200;;;16.62792;30.9583
46174;BME280;31897;52.420;13.498;2023-06-10T01:02:40;101200;;;16.58754;31.01903
46174;BME280;31897;52.420;13.498;2023-06-10T01:05:40;101200;;;16.52616;31.09818
46174;BME280;31897;52.420;13.498;2023-06-10T01:08:44;101200;;;16.49805;31.14663
46174;BME280;31897;52.420;13.498;2023-06-10T01:11:47;101200;;;16.47576;31.20688
46174;BME280;31897;52.420;13.498;2023-06-10T01:14:50;101200;;;16.4819;31.24853
46174;BME280;31897;52.420;13.498;2023-06-10T01:17:55;101200;;;16.5491;31.19913
46174;BME280;31897;52.420;13.498;2023-06-10T01:20:56;101200;;;16.50064;31.2421
46174;BME280;31897;52.420;13.498;2023-06-10T01:23:57;101200;;;16.4861;31.26036
46174;BME280;31897;52.420;13.498;2023-06-10T01:26:59;101200;;;16.44992;31.309
46174;BME280;31897;52.420;13.498;2023-06-10T01:30:03;101200;;;16.43247;31.35718
46174;BME280;31897;52.420;13.498;2023-06-10T01:33:06;101200;;;16.40921;31.42936
46174;BME280;31897;52.420;13.498;2023-06-10T01:36:08;101200;;;16.31488;31.46145
46174;BME280;31897;52.420;13.498;2023-06-10T01:39:09;101200;;;16.30292;31.54527
46174;BME280;31897;52.420;13.498;2023-06-10T01:42:11;101200;;;16.26739;31.58787
46174;BME280;31897;52.420;13.498;2023-06-10T01:45:12;101200;;;16.24316;31.61231
46174;BME280;31897;52.420;13.498;2023-06-10T01:48:13;101200;;;16.20374;31.66692
46174;BME280;31897;52.420;13.498;2023-06-10T01:51:13;101200;;;16.16724;31.74532
46174;BME280;31897;52.420;13.498;2023-06-10T01:54:14;101200;;;16.17208;31.81679
46174;BME280;31897;52.420;13.498;2023-06-10T01:57:15;101300;;;16.07904;31.93819
46174;BME280;31897;52.420;13.498;2023-06-10T02:00:16;101300;;;16.10715;31.92563
46174;BME280;31897;52.420;13.498;2023-06-10T02:03:17;101300;;;16.13913;31.88912
46174;BME280;31897;52.420;13.498;2023-06-10T02:06:18;101300;;;16.0994;31.87809
46174;BME280;31897;52.420;13.498;2023-06-10T02:09:18;101300;;;16.05384;31.93876
46174;BME280;31897;52.420;13.498;2023-06-10T02:12:19;101300;;;16.02961;31.99893
46174;BME280;31897;52.420;13.498;2023-06-10T02:15:20;101300;;;16.05966;32.00423
46174;BME280;31897;52.420;13.498;2023-06-10T02:18:21;101300;;;16.08583;31.97382
46174;BME280;31897;52.420;13.498;2023-06-10T02:21:22;101300;;;16.03155;31.98697
46174;BME280;31897;52.420;13.498;2023-06-10T02:24:22;101300;;;15.97696;32.05974
46174;BME280;31897;52.420;13.498;2023-06-10T02:27:23;101300;;;15.97405;32.07769
46174;BME280;31897;52.420;13.498;2023-06-10T02:30:24;101300;;;15.97437;32.06576
46174;BME280;31897;52.420;13.498;2023-06-10T02:33:25;101300;;;15.93043;32.1025
46174;BME280;31897;52.420;13.498;2023-06-10T02:36:25;101300;;;15.89134;32.20471
46174;BME280;31897;52.420;13.498;2023-06-10T02:39:27;101300;;;15.81801;32.17054
46174;BME280;31897;52.420;13.498;2023-06-10T02:42:28;101300;;;15.6736;32.40606
46174;BME280;31897;52.420;13.498;2023-06-10T02:45:29;101300;;;15.64033;32.4306
46174;BME280;31897;52.420;13.498;2023-06-10T02:48:29;101300;;;15.66003;32.41827
46174;BME280;31897;52.420;13.498;2023-06-10T02:51:30;101300;;;15.6316;32.46057
46174;BME280;31897;52.420;13.498;2023-06-10T02:54:31;101300;;;15.6371;32.4962
46174;BME280;31897;52.420;13.498;2023-06-10T02:57:31;101300;;;15.62062;32.50846
46174;BME280;31897;52.420;13.498;2023-06-10T03:00:32;101300;;;15.61157;32.54439
46174;BME280;31897;52.420;13.498;2023-06-10T03:03:33;101300;;;15.58379;32.57475
46174;BME280;31897;52.420;13.498;2023-06-10T03:06:34;101300;;;15.55342;32.63494
46174;BME280;31897;52.420;13.498;2023-06-10T03:09:35;101300;;;15.50723;32.6895
46174;BME280;31897;52.420;13.498;2023-06-10T03:12:35;101300;;;15.47072;32.72002
46174;BME280;31897;52.420;13.498;2023-06-10T03:15:36;101300;;;15.49301;32.73743
46174;BME280;31897;52.420;13.498;2023-06-10T03:18:37;101300;;;15.49269;32.81485
46174;BME280;31897;52.420;13.498;2023-06-10T03:21:38;101300;;;15.54082;32.72454
46174;BME280;31897;52.420;13.498;2023-06-10T03:24:38;101300;;;15.51595;32.77269
46174;BME280;31897;52.420;13.498;2023-06-10T03:27:39;101300;;;15.53372;32.77232
46174;BME280;31897;52.420;13.498;2023-06-10T03:30:40;101300;;;15.55084;32.71838
46174;BME280;31897;52.420;13.498;2023-06-10T03:33:41;101300;;;15.55504;32.74807
46174;BME280;31897;52.420;13.498;2023-06-10T03:36:42;101300;;;15.5153;32.8918
46174;BME280;31897;52.420;13.498;2023-06-10T03:39:42;101300;;;15.51853;32.83814
46174;BME280;31897;52.420;13.498;2023-06-10T03:42:43;101300;;;15.5321;32.81404
46174;BME280;31897;52.420;13.498;2023-06-10T03:45:44;101300;;;15.48784;32.83876
46174;BME280;31897;52.420;13.498;2023-06-10T03:48:45;101300;;;15.5027;32.90992
46174;BME280;31897;52.420;13.498;2023-06-10T03:51:46;101300;;;15.48429;32.9222
46174;BME280;31897;52.420;13.498;2023-06-10T03:54:46;101300;;;15.5166;32.993
46174;BME280;31897;52.420;13.498;2023-06-10T03:57:47;101300;;;15.53404;33.06411
46174;BME280;31897;52.420;13.498;2023-06-10T04:00:48;101300;;;15.48429;33.03532
46174;BME280;31897;52.420;13.498;2023-06-10T04:03:49;101300;;;15.42905;33.05428
46174;BME280;31897;52.420;13.498;2023-06-10T04:06:50;101300;;;15.42291;33.09607
46174;BME280;31897;52.420;13.498;2023-06-10T04:09:50;101300;;;15.44165;33.14928
46174;BME280;31897;52.420;13.498;2023-06-10T04:12:51;101300;;;15.45586;33.16091
46174;BME280;31897;52.420;13.498;2023-06-10T04:15:52;101300;;;15.4985;33.13626
46174;BME280;31897;52.420;13.498;2023-06-10T04:18:52;101300;;;15.57152;33.0455
46174;BME280;31897;52.420;13.498;2023-06-10T04:21:53;101300;;;15.56053;33.03381
46174;BME280;31897;52.420;13.498;2023-06-10T04:24:54;101300;;;15.60027;33.02706
46174;BME280;31897;52.420;13.498;2023-06-10T04:27:55;101300;;;15.67489;33.01366
46174;BME280;31897;52.420;13.498;2023-06-10T04:30:55;101300;;;15.69589;33.00133
46174;BME280;31897;52.420;13.498;2023-06-10T04:33:56;101300;;;15.68232;33.10286
46174;BME280;31897;52.420;13.498;2023-06-10T04:36:57;101300;;;15.703;33.03097
46174;BME280;31897;52.420;13.498;2023-06-10T04:39:58;101300;;;15.70752;33.06067
46174;BME280;31897;52.420;13.498;2023-06-10T04:42:59;101300;;;15.71851;33.03662
46174;BME280;31897;52.420;13.498;2023-06-10T04:46:00;101300;;;15.74984;32.98237
46174;BME280;31897;52.420;13.498;2023-06-10T04:49:01;101300;;;15.75404;32.91675
46174;BME280;31897;52.420;13.498;2023-06-10T04:52:02;101300;;;15.72981;32.95299
46174;BME280;31897;52.420;13.498;2023-06-10T04:55:03;101300;;;15.74726;32.98242
46174;BME280;31897;52.420;13.498;2023-06-10T04:58:04;101300;;;15.8529;32.9505
46174;BME280;31897;52.420;13.498;2023-06-10T05:01:05;101300;;;15.90007;32.85419
46174;BME280;31897;52.420;13.498;2023-06-10T05:04:05;101300;;;15.96823;32.67994
46174;BME280;31897;52.420;13.498;2023-06-10T05:07:06;101300;;;16.0406;32.70824
46174;BME280;31897;52.420;13.498;2023-06-10T05:10:07;101300;;;16.12621;32.70645
46174;BME280;31897;52.420;13.498;2023-06-10T05:13:08;101300;;;16.25156;32.67401
46174;BME280;31897;52.420;13.498;2023-06-10T05:16:09;101300;;;16.38983;32.65321
46174;BME280;31897;52.420;13.498;2023-06-10T05:19:10;101300;;;16.41987;32.57501
46174;BME280;31897;52.420;13.498;2023-06-10T05:22:10;101300;;;16.47738;32.42458
46174;BME280;31897;52.420;13.498;2023-06-10T05:25:11;101300;;;16.7368;32.15023
46174;BME280;31897;52.420;13.498;2023-06-10T05:28:12;101300;;;16.86376;32.15934
46174;BME280;31897;52.420;13.498;2023-06-10T05:31:13;101300;;;17.18004;31.79953
46174;BME280;31897;52.420;13.498;2023-06-10T05:34:13;101300;;;17.31443;31.78445
46174;BME280;31897;52.420;13.498;2023-06-10T05:37:14;101300;;;17.43623;31.67991
46174;BME280;31897;52.420;13.498;2023-06-10T05:40:15;101300;;;17.67465;31.47674
46174;BME280;31897;52.420;13.498;2023-06-10T05:43:16;101300;;;18.99762;29.94928
46174;BME280;31897;52.420;13.498;2023-06-10T05:46:16;101300;;;19.96522;28.91068
46174;BME280;31897;52.420;13.498;2023-06-10T05:49:17;101300;;;21.13928;27.61861
46174;BME280;31897;52.420;13.498;2023-06-10T05:52:18;101300;;;20.60943;28.3723
46174;BME280;31897;52.420;13.498;2023-06-10T05:55:19;101300;;;20.0573;28.89581
46174;BME280;31897;52.420;13.498;2023-06-10T05:58:20;101300;;;19.79593;29.24083
46174;BME280;31897;52.420;13.498;2023-06-10T06:01:20;101300;;;19.64538;29.29947
46174;BME280;31897;52.420;13.498;2023-06-10T06:04:21;101300;;;19.51292;29.42367
46174;BME280;31897;52.420;13.498;2023-06-10T06:07:22;101300;;;19.37917;29.55985
46174;BME280;31897;52.420;13.498;2023-06-10T06:10:22;101300;;;19.30001;29.55613
46174;BME280;31897;52.420;13.498;2023-06-10T06:13:23;101300;;;19.21828;29.59456
46174;BME280;31897;52.420;13.498;2023-06-10T06:16:24;101300;;;19.20438;29.67909
46174;BME280;31897;52.420;13.498;2023-06-10T06:19:25;101300;;;19.23895;29.51583
46174;BME280;31897;52.420;13.498;2023-06-10T06:22:26;101300;;;19.30874;29.45971
46174;BME280;31897;52.420;13.498;2023-06-10T06:25:26;101300;;;19.40437;29.39078
46174;BME280;31897;52.420;13.498;2023-06-10T06:28:27;101300;;;19.55976;29.22983
46174;BME280;31897;52.420;13.498;2023-06-10T06:31:28;101300;;;19.58012;29.2593
46174;BME280;31897;52.420;13.498;2023-06-10T06:34:29;101300;;;19.67542;29.10605
46174;BME280;31897;52.420;13.498;2023-06-10T06:37:30;101300;;;19.70805;29.081
46174;BME280;31897;52.420;13.498;2023-06-10T06:40:30;101400;;;19.8095;28.93952
46174;BME280;31897;52.420;13.498;2023-06-10T06:43:31;101400;;;19.84633;28.9083
46174;BME280;31897;52.420;13.498;2023-06-10T06:46:32;101400;;;19.85667;28.8839
46174;BME280;31897;52.420;13.498;2023-06-10T06:49:33;101400;;;19.86474;28.88968
46174;BME280;31897;52.420;13.498;2023-06-10T06:52:33;101400;;;20.00044;28.74702
46174;BME280;31897;52.420;13.498;2023-06-10T06:55:34;101400;;;20.1316;28.56225
46174;BME280;31897;52.420;13.498;2023-06-10T06:58:35;101400;;;20.30962;28.39395
46174;BME280;31897;52.420;13.498;2023-06-10T07:01:36;101400;;;20.3668;28.32582
46174;BME280;31897;52.420;13.498;2023-06-10T07:04:36;101400;;;20.61137;28.04057
46174;BME280;31897;52.420;13.498;2023-06-10T07:07:37;101400;;;20.81846;27.81656
46174;BME280;31897;52.420;13.498;2023-06-10T07:10:38;101400;;;20.93283;27.67392
46174;BME280;31897;52.420;13.498;2023-06-10T07:13:39;101400;;;21.06271;27.49445
46174;BME280;31897;52.420;13.498;2023-06-10T07:16:39;101400;;;21.12959;27.40763
46174;BME280;31897;52.420;13.498;2023-06-10T07:19:40;101400;;;21.1186;27.33554
46174;BME280;31897;52.420;13.498;2023-06-10T07:22:41;101400;;;21.1031;27.324
46174;BME280;31897;52.420;13.498;2023-06-10T07:25:42;101400;;;21.11408;27.25719
46174;BME280;31897;52.420;13.498;2023-06-10T07:28:43;101400;;;21.22813;27.12035
46174;BME280;31897;52.420;13.498;2023-06-10T07:31:44;101400;;;21.29888;27.04537
46174;BME280;31897;52.420;13.498;2023-06-10T07:34:44;101400;;;21.39031;26.88503
46174;BME280;31897;52.420;13.498;2023-06-10T07:37:45;101400;;;21.5105;26.71754
46174;BME280;31897;52.420;13.498;2023-06-10T07:40:46;101400;;;21.57059;26.66701
46174;BME280;31897;52.420;13.498;2023-06-10T07:43:47;101400;;;21.66428;26.54872
46174;BME280;31897;52.420;13.498;2023-06-10T07:46:47;101400;;;21.7415;26.3826
46174;BME280;31897;52.420;13.498;2023-06-10T07:49:48;101400;;;21.80095;26.22917
46174;BME280;31897;52.420;13.498;2023-06-10T07:52:49;101400;;;22.02194;26.04537
46174;BME280;31897;52.420;13.498;2023-06-10T07:55:50;101400;;;22.23452;25.83149
46174;BME280;31897;52.420;13.498;2023-06-10T07:58:50;101400;;;22.44065;25.7206
46174;BME280;31897;52.420;13.498;2023-06-10T08:01:52;101400;;;22.5589;25.56453
46174;BME280;31897;52.420;13.498;2023-06-10T08:04:53;101400;;;22.81898;25.28755
46174;BME280;31897;52.420;13.498;2023-06-10T08:07:54;101400;;;23.08876;25.02192
46174;BME280;31897;52.420;13.498;2023-06-10T08:10:54;101400;;;23.08229;24.9312
46174;BME280;31897;52.420;13.498;2023-06-10T08:13:55;101400;;;22.96631;24.96016
46174;BME280;31897;52.420;13.498;2023-06-10T08:16:56;101400;;;22.93141;24.93123
46174;BME280;31897;52.420;13.498;2023-06-10T08:19:57;101400;;;22.89135;24.95105
46174;BME280;31897;52.420;13.498;2023-06-10T08:22:58;101400;;;22.89846;24.85976
46174;BME280;31897;52.420;13.498;2023-06-10T08:25:59;101400;;;23.13205;24.56498
46174;BME280;31897;52.420;13.498;2023-06-10T08:29:00;101400;;;23.29101;24.52805
46174;BME280;31897;52.420;13.498;2023-06-10T08:32:01;101400;;;23.42638;24.38273
46174;BME280;31897;52.420;13.498;2023-06-10T08:35:02;101400;;;23.56725;24.27962
46174;BME280;31897;52.420;13.498;2023-06-10T08:38:03;101400;;;23.62314;24.19826
46174;BME280;31897;52.420;13.498;2023-06-10T08:41:05;101400;;;23.75916;24.05876
46174;BME280;31897;52.420;13.498;2023-06-10T08:44:08;101400;;;23.78921;24.00276
46174;BME280;31897;52.420;13.498;2023-06-10T08:47:12;101400;;;23.98855;23.87866
46174;BME280;31897;52.420;13.498;2023-06-10T08:50:13;101400;;;24.15494;23.76195
46174;BME280;31897;52.420;13.498;2023-06-10T08:53:16;101400;;;24.21924;23.64352
46174;BME280;31897;52.420;13.498;2023-06-10T08:56:18;101400;;;24.28903;23.51873
46174;BME280;31897;52.420;13.498;2023-06-10T08:59:20;101400;;;24.42085;23.40941
46174;BME280;31897;52.420;13.498;2023-06-10T09:02:21;101400;;;24.52068;23.30145
46174;BME280;31897;52.420;13.498;2023-06-10T09:05:23;101400;;;24.61341;23.18156
46174;BME280;31897;52.420;13.498;2023-06-10T09:08:23;101400;;;24.64959;23.08855
46174;BME280;31897;52.420;13.498;2023-06-10T09:11:24;101400;;;24.80694;23.00222
46174;BME280;31897;52.420;13.498;2023-06-10T09:14:25;101400;;;24.95524;22.87356
46174;BME280;31897;52.420;13.498;2023-06-10T09:17:26;101400;;;25.07155;22.64868
46174;BME280;31897;52.420;13.498;2023-06-10T09:20:27;101400;;;25.19885;22.45366
46174;BME280;31897;52.420;13.498;2023-06-10T09:23:28;101400;;;25.73325;21.89111
46174;BME280;31897;52.420;13.498;2023-06-10T09:26:29;101400;;;27.02467;20.67675
46174;BME280;31897;52.420;13.498;2023-06-10T09:29:30;101400;;;29.96718;18.19854
46174;BME280;31897;52.420;13.498;2023-06-10T09:32:31;101400;;;29.24374;18.94854
46174;BME280;31897;52.420;13.498;2023-06-10T09:35:32;101400;;;28.93356;19.05193
46174;BME280;31897;52.420;13.498;2023-06-10T09:38:33;101400;;;28.49284;19.26688
46174;BME280;31897;52.420;13.498;2023-06-10T09:41:35;101400;;;28.32483;19.06083
46174;BME280;31897;52.420;13.498;2023-06-10T09:44:36;101400;;;27.49348;19.57282
46174;BME280;31897;52.420;13.498;2023-06-10T09:47:36;101400;;;27.01788;19.94156
46174;BME280;31897;52.420;13.498;2023-06-10T09:50:41;101400;;;27.97426;19.01227
46174;BME280;31897;52.420;13.498;2023-06-10T09:53:42;101400;;;27.98428;19.0488
46174;BME280;31897;52.420;13.498;2023-06-10T09:56:43;101400;;;28.18589;18.64428
46174;BME280;31897;52.420;13.498;2023-06-10T09:59:47;101400;;;27.9468;18.73135
46174;BME280;31897;52.420;13.498;2023-06-10T10:02:48;101400;;;27.72709;18.77425
46174;BME280;31897;52.420;13.498;2023-06-10T10:05:49;101400;;;27.44017;19.09087
46174;BME280;31897;52.420;13.498;2023-06-10T10:08:50;101400;;;27.99235;18.54445
46174;BME280;31897;52.420;13.498;2023-06-10T10:11:51;101400;;;28.1035;18.63658
46174;BME280;31897;52.420;13.498;2023-06-10T10:14:52;101400;;;28.27604;18.78067
46174;BME280;31897;52.420;13.498;2023-06-10T10:17:58;101400;;;28.34066;18.87547
46174;BME280;31897;52.420;13.498;2023-06-10T10:21:02;101400;;;28.172;18.88481
46174;BME280;31897;52.420;13.498;2023-06-10T10:24:09;101400;;;27.9077;19.06528
46174;BME280;31897;52.420;13.498;2023-06-10T10:27:13;101400;;;27.58104;19.21823
46174;BME280;31897;52.420;13.498;2023-06-10T10:30:14;101400;;;27.50609;19.16706
46174;BME280;31897;52.420;13.498;2023-06-10T10:33:18;101400;;;27.91707;18.81902
46174;BME280;31897;52.420;13.498;2023-06-10T10:36:19;101400;;;27.99623;18.71016
46174;BME280;31897;52.420;13.498;2023-06-10T10:39:20;101400;;;27.84696;18.51573
46174;BME280;31897;52.420;13.498;2023-06-10T10:42:21;101400;;;27.58945;18.56698
46174;BME280;31897;52.420;13.498;2023-06-10T10:45:23;101400;;;27.78395;18.4824
46174;BME280;31897;52.420;13.498;2023-06-10T10:48:23;101400;;;27.95713;18.33749
46174;BME280;31897;52.420;13.498;2023-06-10T10:51:25;101400;;;28.08024;18.09694
46174;BME280;31897;52.420;13.498;2023-06-10T10:54:29;101400;;;28.09607;18.02226
46174;BME280;31897;52.420;13.498;2023-06-10T10:57:30;101300;;;28.05956;17.85837
46174;BME280;31897;52.420;13.498;2023-06-10T11:00:31;101300;;;28.12515;17.76851
46174;BME280;31897;52.420;13.498;2023-06-10T11:03:32;101300;;;28.13226;17.71891
46174;BME280;31897;52.420;13.498;2023-06-10T11:06:51;101300;;;28.15455;17.64998
46174;BME280;31897;52.420;13.498;2023-06-10T11:10:00;101300;;;28.2056;17.56707
46174;BME280;31897;52.420;13.498;2023-06-10T11:13:05;101300;;;28.30996;17.45027
46174;BME280;31897;52.420;13.498;2023-06-10T11:16:06;101300;;;28.3161;17.30842
46174;BME280;31897;52.420;13.498;2023-06-10T11:19:08;101300;;;28.36166;17.25036
46174;BME280;31897;52.420;13.498;2023-06-10T11:22:14;101300;;;28.30059;17.04479
46174;BME280;31897;52.420;13.498;2023-06-10T11:25:16;101300;;;28.35455;17.01082
46174;BME280;31897;52.420;13.498;2023-06-10T11:28:17;101300;;;28.45407;16.97413
46174;BME280;31897;52.420;13.498;2023-06-10T11:31:18;101300;;;28.5762;16.84373
46174;BME280;31897;52.420;13.498;2023-06-10T11:34:23;101300;;;28.66118;16.79554
46174;BME280;31897;52.420;13.498;2023-06-10T11:37:24;101300;;;28.78654;16.70179
46174;BME280;31897;52.420;13.498;2023-06-10T11:40:26;101300;;;28.94616;16.686
46174;BME280;31897;52.420;13.498;2023-06-10T11:43:26;101300;;;29.04761;16.61201
46174;BME280;31897;52.420;13.498;2023-06-10T11:46:27;101300;;;29.14196;16.40912
46174;BME280;31897;52.420;13.498;2023-06-10T11:49:28;101300;;;29.16975;16.3766
46174;BME280;31897;52.420;13.498;2023-06-10T11:52:30;101300;;;29.19721;16.36876
46174;BME280;31897;52.420;13.498;2023-06-10T11:55:47;101300;;;29.22144;16.26246
46174;BME280;31897;52.420;13.498;2023-06-10T11:58:52;101300;;;29.08218;16.20935
46174;BME280;31897;52.420;13.498;2023-06-10T12:01:53;101300;;;29.04277;16.0022
46174;BME280;31897;52.420;13.498;2023-06-10T12:04:54;101300;;;29.05827;15.97042
46174;BME280;31897;52.420;13.498;2023-06-10T12:08:10;101300;;;29.05795;15.88414
46174;BME280;31897;52.420;13.498;2023-06-10T12:11:11;101300;;;29.12936;15.83654
46174;BME280;31897;52.420;13.498;2023-06-10T12:14:12;101300;;;29.2027;15.78883
46174;BME280;31897;52.420;13.498;2023-06-10T12:17:13;101300;;;29.2964;15.81998
46174;BME280;31897;52.420;13.498;2023-06-10T12:20:24;101300;;;29.35489;15.85951
46174;BME280;31897;52.420;13.498;2023-06-10T12:23:25;101300;;;29.32742;15.88589
46174;BME280;31897;52.420;13.498;2023-06-10T12:26:33;101300;;;29.40303;15.95522
46174;BME280;31897;52.420;13.498;2023-06-10T12:29:34;101300;;;29.6053;15.99204
46174;BME280;31897;52.420;13.498;2023-06-10T12:32:35;101300;;;29.78527;16.00557
46174;BME280;31897;52.420;13.498;2023-06-10T12:35:36;101300;;;30.02728;15.99672
46174;BME280;31897;52.420;13.498;2023-06-10T12:38:47;101300;;;30.17332;15.92585
46174;BME280;31897;52.420;13.498;2023-06-10T12:41:48;101300;;;30.33423;15.90964
46174;BME280;31897;52.420;13.498;2023-06-10T12:44:52;101300;;;30.53488;15.79198
46174;BME280;31897;52.420;13.498;2023-06-10T12:48:03;101300;;;30.73941;15.66159
46174;BME280;31897;52.420;13.498;2023-06-10T12:51:04;101300;;;30.85315;15.53064
46174;BME280;31897;52.420;13.498;2023-06-10T12:54:05;101300;;;30.55362;15.59289
46174;BME280;31897;52.420;13.498;2023-06-10T12:57:06;101300;;;30.5743;15.46788
46174;BME280;31897;52.420;13.498;2023-06-10T13:00:07;101300;;;30.95331;15.35096
46174;BME280;31897;52.420;13.498;2023-06-10T13:03:08;101300;;;31.25187;15.10269
46174;BME280;31897;52.420;13.498;2023-06-10T13:06:09;101300;;;31.57143;14.94561
46174;BME280;31897;52.420;13.498;2023-06-10T13:09:10;101300;;;31.30131;15.06233
46174;BME280;31897;52.420;13.498;2023-06-10T13:12:10;101300;;;31.27578;14.85952
46174;BME280;31897;52.420;13.498;2023-06-10T13:15:11;101300;;;30.80727;14.44422
46174;BME280;31897;52.420;13.498;2023-06-10T13:18:12;101300;;;31.24056;14.30418
46174;BME280;31897;52.420;13.498;2023-06-10T13:21:13;101300;;;31.59534;14.10699
46174;BME280;31897;52.420;13.498;2023-06-10T13:24:14;101300;;;31.82088;13.70731
46174;BME280;31897;52.420;13.498;2023-06-10T13:27:15;101300;;;32.04286;13.45638
46174;BME280;31897;52.420;13.498;2023-06-10T13:30:15;101300;;;32.07711;13.0256
46174;BME280;31897;52.420;13.498;2023-06-10T13:33:16;101300;;;32.31395;12.61778
46174;BME280;31897;52.420;13.498;2023-06-10T13:36:17;101300;;;32.38698;12.43243
46174;BME280;31897;52.420;13.498;2023-06-10T13:39:18;101300;;;32.59377;12.3681
46174;BME280;31897;52.420;13.498;2023-06-10T13:42:19;101300;;;32.80929;12.25954
46174;BME280;31897;52.420;13.498;2023-06-10T13:45:20;101200;;;32.597;12.54197
46174;BME280;31897;52.420;13.498;2023-06-10T13:48:21;101200;;;32.31007;12.7796
46174;BME280;31897;52.420;13.498;2023-06-10T13:51:21;101300;;;31.71005;12.93926
46174;BME280;31897;52.420;13.498;2023-06-10T13:54:22;101200;;;31.80569;12.92643
46174;BME280;31897;52.420;13.498;2023-06-10T13:57:23;101200;;;32.16823;12.89508
46174;BME280;31897;52.420;13.498;2023-06-10T14:00:24;101200;;;32.34691;12.32961
46174;BME280;31897;52.420;13.498;2023-06-10T14:03:25;101200;;;32.0099;12.63906
46174;BME280;31897;52.420;13.498;2023-06-10T14:06:25;101200;;;32.39473;12.39459
46174;BME280;31897;52.420;13.498;2023-06-10T14:09:26;101200;;;32.72916;12.19681
46174;BME280;31897;52.420;13.498;2023-06-10T14:12:27;101200;;;32.92465;12.03978
46174;BME280;31897;52.420;13.498;2023-06-10T14:15:28;101200;;;33.08201;12.0223
46174;BME280;31897;52.420;13.498;2023-06-10T14:18:29;101200;;;32.95793;12.06852
46174;BME280;31897;52.420;13.498;2023-06-10T14:21:29;101200;;;32.23446;12.22572
46174;BME280;31897;52.420;13.498;2023-06-10T14:24:30;101200;;;31.83218;12.46527
46174;BME280;31897;52.420;13.498;2023-06-10T14:27:31;101200;;;31.29614;12.81908
46174;BME280;31897;52.420;13.498;2023-06-10T14:30:32;101200;;;30.91712;13.26036
46174;BME280;31897;52.420;13.498;2023-06-10T14:33:33;101200;;;30.66704;13.52504
46174;BME280;31897;52.420;13.498;2023-06-10T14:36:34;101200;;;30.64377;13.63803
46174;BME280;31897;52.420;13.498;2023-06-10T14:39:35;101200;;;31.17949;13.40975
46174;BME280;31897;52.420;13.498;2023-06-10T14:42:35;101200;;;31.606;13.23795
46174;BME280;31897;52.420;13.498;2023-06-10T14:45:36;101200;;;31.89358;13.10656
46174;BME280;31897;52.420;13.498;2023-06-10T14:48:37;101200;;;32.15627;13.05118
46174;BME280;31897;52.420;13.498;2023-06-10T14:51:38;101200;;;32.27388;13.0182
46174;BME280;31897;52.420;13.498;2023-06-10T14:54:39;101200;;;32.51752;12.88945
46174;BME280;31897;52.420;13.498;2023-06-10T14:57:40;101200;;;32.42155;12.77804
46174;BME280;31897;52.420;13.498;2023-06-10T15:00:41;101200;;;32.43027;12.78986
46174;BME280;31897;52.420;13.498;2023-06-10T15:03:42;101200;;;32.46065;12.70694